createdAt,value
2018-12-20T00:01:22.120Z,15.30
2018-12-20T00:03:51.061Z,16.20
2018-12-20T00:06:20.068Z,14.93
2018-12-20T00:08:48.789Z,15.67
2018-12-20T00:11:17.355Z,16.87
2018-12-20T00:13:46.206Z,15.90
2018-12-20T00:16:15.206Z,17.60
2018-12-20T00:18:44.085Z,13.63
2018-12-20T00:21:12.740Z,17.73
2018-12-20T00:23:44.613Z,20.30
2018-12-20T00:26:13.613Z,19.70
2018-12-20T00:28:42.634Z,20.50
2018-12-20T00:31:13.708Z,21.77
2018-12-20T00:33:42.263Z,23.53
2018-12-20T00:36:10.994Z,21.63
2018-12-20T00:38:40.171Z,20.80
2018-12-20T00:41:09.178Z,21.63
2018-12-20T00:43:38.094Z,21.73
2018-12-20T00:46:06.677Z,21.10
2018-12-20T00:48:35.761Z,21.90
2018-12-20T00:51:04.776Z,22.87
2018-12-20T00:53:33.942Z,21.13
2018-12-20T00:56:03.170Z,19.63
2018-12-20T00:58:32.245Z,19.77
2018-12-20T01:01:01.196Z,20.93
2018-12-20T01:03:29.837Z,20.53
2018-12-20T01:05:58.458Z,18.70
2018-12-20T01:08:27.414Z,17.37
2018-12-20T01:10:56.452Z,17.57
2018-12-20T01:13:25.112Z,18.73
2018-12-20T01:15:54.072Z,18.53
2018-12-20T01:18:23.106Z,18.90
2018-12-20T01:20:52.233Z,18.80
2018-12-20T01:23:20.827Z,19.10
2018-12-20T01:25:49.561Z,18.53
2018-12-20T01:28:18.589Z,18.13
2018-12-20T01:30:47.609Z,19.67
2018-12-20T01:33:16.502Z,17.27
2018-12-20T01:35:45.163Z,18.37
2018-12-20T01:38:14.167Z,18.70
2018-12-20T01:40:43.083Z,18.27
2018-12-20T01:43:12.183Z,16.20
2018-12-20T01:45:40.800Z,17.80
2018-12-20T01:48:09.546Z,17.73
2018-12-20T01:50:38.600Z,17.00
2018-12-20T01:53:07.502Z,16.87
2018-12-20T01:55:36.520Z,16.47
2018-12-20T01:58:05.111Z,16.57
2018-12-20T02:00:34.342Z,15.90
2018-12-20T02:03:03.566Z,15.73
2018-12-20T02:05:32.117Z,16.45
2018-12-20T02:08:00.782Z,15.27
2018-12-20T02:10:29.779Z,15.33
2018-12-20T02:12:58.581Z,15.50
2018-12-20T02:15:27.243Z,15.97
2018-12-20T02:17:56.034Z,16.27
2018-12-20T02:20:24.808Z,18.30
2018-12-20T02:22:54.033Z,18.73
2018-12-20T02:25:23.064Z,17.23
2018-12-20T02:27:51.673Z,18.57
2018-12-20T02:30:20.295Z,19.17
2018-12-20T02:32:51.915Z,18.60
2018-12-20T02:35:20.935Z,17.63
2018-12-20T02:37:49.968Z,18.53
2018-12-20T02:40:19.014Z,18.00
2018-12-20T02:42:48.067Z,18.23
2018-12-20T02:45:16.724Z,17.47
2018-12-20T02:47:45.677Z,16.47
2018-12-20T02:50:14.302Z,17.33
2018-12-20T02:52:42.858Z,16.90
2018-12-20T02:55:11.937Z,17.27
2018-12-20T02:57:40.918Z,17.47
2018-12-20T03:00:13.004Z,16.87
2018-12-20T03:02:41.925Z,16.10
2018-12-20T03:05:10.649Z,15.23
2018-12-20T03:07:39.587Z,14.80
2018-12-20T03:10:09.032Z,16.17
2018-12-20T03:12:37.613Z,14.83
2018-12-20T03:15:06.404Z,15.57
2018-12-20T03:17:35.536Z,14.27
2018-12-20T03:20:05.296Z,13.50
2018-12-20T03:22:34.480Z,13.03
2018-12-20T03:25:03.662Z,13.53
2018-12-20T03:27:32.512Z,13.53
2018-12-20T03:30:01.569Z,11.57
2018-12-20T03:32:30.687Z,11.33
2018-12-20T03:34:59.599Z,12.63
2018-12-20T03:37:28.278Z,11.20
2018-12-20T03:39:57.289Z,11.13
2018-12-20T03:42:26.496Z,11.60
2018-12-20T03:44:55.496Z,15.33
2018-12-20T03:47:24.279Z,12.17
2018-12-20T03:49:53.329Z,13.97
2018-12-20T03:52:22.419Z,14.17
2018-12-20T03:54:51.545Z,15.17
2018-12-20T03:57:20.553Z,17.67
2018-12-20T03:59:49.646Z,18.50
2018-12-20T04:02:18.786Z,14.50
2018-12-20T04:04:47.473Z,13.83
2018-12-20T04:07:16.426Z,13.00
2018-12-20T04:09:45.125Z,14.23
2018-12-20T04:12:13.713Z,13.50
2018-12-20T04:14:42.674Z,14.17
2018-12-20T04:17:11.419Z,16.40
2018-12-20T04:19:40.503Z,17.20
2018-12-20T04:22:09.752Z,17.30
2018-12-20T04:24:38.526Z,16.20
2018-12-20T04:27:07.156Z,16.60
2018-12-20T04:29:36.331Z,15.70
2018-12-20T04:32:05.699Z,15.37
2018-12-20T04:34:34.290Z,15.20
2018-12-20T04:37:02.909Z,15.23
2018-12-20T04:39:32.194Z,14.40
2018-12-20T04:42:01.107Z,13.60
2018-12-20T04:44:29.735Z,13.43
2018-12-20T04:46:59.622Z,13.90
2018-12-20T04:49:28.940Z,13.73
2018-12-20T04:51:57.767Z,14.87
2018-12-20T04:54:27.493Z,13.90
2018-12-20T04:56:56.461Z,14.97
2018-12-20T04:59:25.382Z,14.27
2018-12-20T05:01:54.166Z,14.60
2018-12-20T05:04:23.260Z,15.73
2018-12-20T05:06:52.186Z,14.63
2018-12-20T05:09:20.801Z,15.73
2018-12-20T05:11:49.555Z,16.33
2018-12-20T05:14:19.053Z,15.43
2018-12-20T05:16:48.250Z,15.93
2018-12-20T05:19:16.916Z,16.97
2018-12-20T05:21:45.880Z,16.40
2018-12-20T05:24:15.111Z,16.40
2018-12-20T05:26:43.746Z,16.93
2018-12-20T05:29:12.396Z,16.73
2018-12-20T05:31:41.335Z,17.13
2018-12-20T05:34:10.388Z,17.23
2018-12-20T05:36:39.540Z,19.07
2018-12-20T05:39:08.113Z,18.60
2018-12-20T05:41:36.739Z,19.77
2018-12-20T05:44:05.766Z,18.93
2018-12-20T05:46:35.562Z,19.70
2018-12-20T05:49:04.328Z,18.53
2018-12-20T05:51:33.401Z,19.13
2018-12-20T05:54:02.279Z,20.13
2018-12-20T05:56:31.320Z,19.50
2018-12-20T05:58:59.999Z,21.90
2018-12-20T06:01:28.636Z,32.87
2018-12-20T06:03:58.063Z,26.63
2018-12-20T06:06:26.612Z,22.73
2018-12-20T06:08:55.194Z,28.20
2018-12-20T06:11:23.939Z,24.00
2018-12-20T06:13:52.632Z,22.47
2018-12-20T06:16:21.806Z,21.23
2018-12-20T06:18:50.848Z,20.77
2018-12-20T06:21:19.677Z,20.33
2018-12-20T06:23:48.270Z,19.10
2018-12-20T06:26:17.310Z,19.50
2018-12-20T06:28:46.264Z,19.27
2018-12-20T06:31:14.810Z,19.03
2018-12-20T06:33:43.350Z,20.20
2018-12-20T06:36:12.293Z,19.33
2018-12-20T06:38:41.218Z,19.60
2018-12-20T06:41:09.805Z,18.77
2018-12-20T06:43:38.754Z,21.77
2018-12-20T06:46:07.321Z,21.37
2018-12-20T06:48:36.275Z,22.13
2018-12-20T06:51:05.318Z,20.10
2018-12-20T06:53:34.376Z,20.47
2018-12-20T06:56:02.930Z,22.40
2018-12-20T06:58:31.743Z,21.10
2018-12-20T07:01:00.803Z,20.57
2018-12-20T07:03:29.757Z,20.10
2018-12-20T07:05:58.321Z,20.53
2018-12-20T07:08:27.319Z,24.70
2018-12-20T07:10:55.892Z,25.40
2018-12-20T07:13:24.887Z,24.40
2018-12-20T07:15:53.753Z,21.80
2018-12-20T07:18:22.612Z,21.17
2018-12-20T07:20:51.598Z,19.73
2018-12-20T07:23:20.260Z,18.97
2018-12-20T07:25:49.223Z,20.20
2018-12-20T07:28:17.796Z,21.47
2018-12-20T07:30:46.334Z,20.10
2018-12-20T07:33:14.901Z,20.83
2018-12-20T07:35:43.854Z,25.97
2018-12-20T07:38:12.724Z,26.25
2018-12-20T07:40:41.965Z,25.53
2018-12-20T07:43:10.616Z,30.20
2018-12-20T07:45:39.221Z,32.37
2018-12-20T07:48:08.317Z,26.03
2018-12-20T07:50:37.211Z,28.23
2018-12-20T07:53:05.784Z,30.20
2018-12-20T07:55:34.405Z,30.10
2018-12-20T07:58:02.988Z,28.23
2018-12-20T08:00:34.407Z,30.30
2018-12-20T08:03:03.517Z,28.10
2018-12-20T08:05:32.453Z,25.43
2018-12-20T08:08:02.007Z,26.67
2018-12-20T08:10:30.927Z,25.63
2018-12-20T08:12:59.924Z,29.60
2018-12-20T08:15:28.799Z,32.43
2018-12-20T08:17:57.321Z,29.70
2018-12-20T08:20:25.847Z,27.67
2018-12-20T08:22:54.458Z,29.40
2018-12-20T08:25:23.339Z,32.43
2018-12-20T08:27:51.925Z,30.77
2018-12-20T08:30:20.688Z,29.93
2018-12-20T08:32:49.293Z,30.33
2018-12-20T08:35:18.024Z,24.57
2018-12-20T08:37:50.081Z,22.80
2018-12-20T08:40:19.021Z,32.10
2018-12-20T08:42:47.586Z,51.33
2018-12-20T08:45:16.160Z,45.10
2018-12-20T08:47:44.729Z,49.57
2018-12-20T08:50:13.689Z,32.53
2018-12-20T08:52:42.688Z,29.20
2018-12-20T08:55:11.688Z,28.57
2018-12-20T08:57:40.249Z,26.50
2018-12-20T09:00:09.142Z,26.90
2018-12-20T09:02:38.096Z,27.27
2018-12-20T09:05:07.040Z,30.03
2018-12-20T09:07:35.930Z,29.30
2018-12-20T09:10:04.857Z,28.97
2018-12-20T09:12:33.723Z,31.53
2018-12-20T09:15:02.706Z,32.13
2018-12-20T09:17:31.261Z,32.33
2018-12-20T09:19:59.823Z,29.10
2018-12-20T09:22:28.403Z,30.53
2018-12-20T09:24:57.069Z,31.47
2018-12-20T09:27:25.980Z,33.60
2018-12-20T09:29:55.576Z,31.77
2018-12-20T09:32:24.581Z,31.20
2018-12-20T09:34:53.528Z,30.97
2018-12-20T09:37:22.465Z,30.50
2018-12-20T09:39:51.125Z,31.27
2018-12-20T09:42:19.721Z,30.33
2018-12-20T09:44:48.289Z,31.77
2018-12-20T09:47:22.713Z,31.97
2018-12-20T09:49:51.656Z,30.57
2018-12-20T09:52:20.858Z,29.77
2018-12-20T09:54:49.426Z,29.97
2018-12-20T09:57:17.965Z,30.97
2018-12-20T09:59:46.871Z,29.33
2018-12-20T10:02:15.848Z,27.73
2018-12-20T10:04:44.495Z,30.63
2018-12-20T10:07:13.386Z,28.27
2018-12-20T10:09:41.928Z,30.17
2018-12-20T10:12:10.501Z,25.33
2018-12-20T10:14:39.459Z,25.97
2018-12-20T10:17:08.400Z,26.10
2018-12-20T10:19:37.366Z,23.27
2018-12-20T10:22:06.412Z,27.10
2018-12-20T10:24:35.306Z,27.50
2018-12-20T10:27:04.993Z,28.53
2018-12-20T10:29:33.981Z,24.90
2018-12-20T10:32:03.028Z,24.37
2018-12-20T10:34:31.966Z,23.40
2018-12-20T10:37:00.595Z,22.80
2018-12-20T10:39:29.142Z,21.60
2018-12-20T10:41:58.076Z,23.10
2018-12-20T10:44:27.007Z,21.87
2018-12-20T10:47:00.361Z,22.40
2018-12-20T10:49:28.941Z,22.83
2018-12-20T10:51:57.848Z,21.23
2018-12-20T10:54:26.795Z,21.00
2018-12-20T10:56:55.853Z,19.73
2018-12-20T10:59:24.981Z,18.83
2018-12-20T11:01:59.270Z,20.57
2018-12-20T11:04:30.864Z,19.57
2018-12-20T11:07:05.146Z,17.83
2018-12-20T11:09:39.542Z,18.57
2018-12-20T11:12:08.225Z,18.43
2018-12-20T11:14:37.203Z,17.17
2018-12-20T11:17:05.803Z,16.83
2018-12-20T11:19:34.705Z,19.43
2018-12-20T11:22:03.675Z,15.33
2018-12-20T11:24:32.230Z,15.87
2018-12-20T11:27:00.835Z,17.83
2018-12-20T11:29:29.747Z,18.17
2018-12-20T11:31:58.311Z,11.88
2018-12-20T11:34:27.244Z,13.40
2018-12-20T11:36:56.181Z,18.43
2018-12-20T11:39:24.720Z,17.23
2018-12-20T11:41:53.697Z,17.40
2018-12-20T11:44:22.737Z,16.60
2018-12-20T11:46:51.659Z,18.30
2018-12-20T11:49:20.605Z,18.47
2018-12-20T11:51:49.507Z,18.67
2018-12-20T11:54:18.473Z,16.50
2018-12-20T11:56:47.390Z,17.53
2018-12-20T11:59:16.010Z,16.00
2018-12-20T12:01:44.981Z,14.27
2018-12-20T12:04:13.963Z,13.63
2018-12-20T12:06:42.821Z,12.93
2018-12-20T12:09:11.374Z,11.70
2018-12-20T12:16:22.735Z,10.63
2018-12-20T12:18:51.661Z,9.23
2018-12-20T12:21:20.194Z,9.75
2018-12-20T12:23:49.121Z,7.50
2018-12-20T12:26:18.050Z,7.90
2018-12-20T12:28:46.993Z,8.98
2018-12-20T12:31:16.044Z,10.00
2018-12-20T12:33:45.040Z,9.23
2018-12-20T12:36:14.012Z,9.07
2018-12-20T12:38:42.695Z,10.28
2018-12-20T12:41:11.655Z,9.97
2018-12-20T12:43:40.197Z,9.87
2018-12-20T12:46:09.079Z,9.73
2018-12-20T12:48:38.071Z,9.30
2018-12-20T12:51:07.146Z,11.07
2018-12-20T12:53:36.215Z,10.93
2018-12-20T12:56:05.211Z,12.27
2018-12-20T12:58:34.183Z,12.20
2018-12-20T13:01:02.754Z,11.57
2018-12-20T13:03:31.353Z,11.57
2018-12-20T13:06:00.372Z,11.97
2018-12-20T13:08:29.322Z,13.47
2018-12-20T13:10:58.491Z,12.73
2018-12-20T13:13:27.588Z,12.30
2018-12-20T13:15:56.487Z,12.00
2018-12-20T13:18:28.971Z,10.37
2018-12-20T13:20:58.466Z,10.65
2018-12-20T13:23:27.476Z,10.87
2018-12-20T13:25:56.379Z,11.73
2018-12-20T13:28:25.267Z,10.78
2018-12-20T13:30:54.219Z,9.90
2018-12-20T13:33:23.107Z,10.20
2018-12-20T13:35:52.148Z,12.20
2018-12-20T13:38:21.042Z,11.97
2018-12-20T13:40:49.678Z,12.47
2018-12-20T13:43:18.545Z,11.90
2018-12-20T13:45:47.548Z,12.97
2018-12-20T13:48:22.170Z,12.60
2018-12-20T13:50:46.745Z,13.73
2018-12-20T13:53:15.777Z,13.60
2018-12-20T13:55:45.448Z,15.03
2018-12-20T13:58:14.355Z,12.20
2018-12-20T14:00:43.295Z,12.00
2018-12-20T14:03:11.907Z,14.57
2018-12-20T14:05:40.901Z,13.20
2018-12-20T14:08:09.924Z,15.50
2018-12-20T14:10:38.854Z,18.03
2018-12-20T14:13:07.448Z,17.40
2018-12-20T14:15:36.409Z,15.20
2018-12-20T14:18:05.072Z,22.17
2018-12-20T14:20:34.054Z,32.47
2018-12-20T14:23:02.973Z,20.20
2018-12-20T14:25:31.965Z,13.20
2018-12-20T14:28:00.557Z,21.77
2018-12-20T14:30:29.480Z,20.97
2018-12-20T14:32:58.427Z,19.40
2018-12-20T14:35:27.050Z,20.87
2018-12-20T14:37:55.633Z,40.77
2018-12-20T14:40:24.613Z,24.63
2018-12-20T14:42:53.242Z,17.40
2018-12-20T14:45:22.279Z,16.67
2018-12-20T14:47:51.007Z,15.73
2018-12-20T14:50:19.991Z,15.47
2018-12-20T14:52:48.944Z,14.93
2018-12-20T14:55:17.542Z,14.50
2018-12-20T14:57:46.543Z,12.73
2018-12-20T15:00:15.570Z,12.90
2018-12-20T15:02:44.497Z,13.30
2018-12-20T15:05:13.233Z,15.00
2018-12-20T15:07:42.244Z,20.07
2018-12-20T15:10:11.224Z,16.83
2018-12-20T15:12:40.222Z,17.90
2018-12-20T15:15:09.896Z,14.03
2018-12-20T15:17:38.514Z,14.33
2018-12-20T15:20:09.105Z,15.10
2018-12-20T15:22:38.070Z,16.40
2018-12-20T15:25:07.069Z,16.87
2018-12-20T15:27:35.675Z,17.07
2018-12-20T15:30:04.801Z,18.20
2018-12-20T15:32:33.371Z,18.37
2018-12-20T15:35:02.085Z,18.90
2018-12-20T15:37:31.012Z,19.20
2018-12-20T15:39:59.992Z,20.43
2018-12-20T15:42:28.920Z,19.97
2018-12-20T15:44:57.520Z,25.93
2018-12-20T15:47:26.128Z,28.60
2018-12-20T15:49:54.990Z,22.50
2018-12-20T15:52:23.562Z,27.20
2018-12-20T15:54:52.475Z,25.37
2018-12-20T15:57:21.088Z,29.03
2018-12-20T15:59:49.617Z,31.20
2018-12-20T16:02:18.664Z,32.13
2018-12-20T16:04:47.607Z,34.23
2018-12-20T16:07:16.144Z,35.00
2018-12-20T16:09:45.217Z,36.20
2018-12-20T16:12:13.811Z,38.60
2018-12-20T16:14:42.732Z,38.23
2018-12-20T16:17:11.315Z,40.27
2018-12-20T16:19:40.489Z,40.00
2018-12-20T16:22:09.262Z,41.37
2018-12-20T16:24:37.800Z,40.80
2018-12-20T16:27:14.478Z,43.90
2018-12-20T16:29:44.490Z,44.00
2018-12-20T16:32:13.150Z,45.53
2018-12-20T16:34:42.169Z,41.97
2018-12-20T16:37:10.737Z,42.43
2018-12-20T16:39:39.630Z,42.13
2018-12-20T16:42:08.635Z,43.13
2018-12-20T16:44:37.296Z,47.20
2018-12-20T16:47:05.878Z,47.27
2018-12-20T16:49:34.540Z,46.47
2018-12-20T16:52:03.722Z,48.87
2018-12-20T16:54:32.619Z,49.70
2018-12-20T16:57:01.209Z,48.07
2018-12-20T16:59:29.828Z,49.07
2018-12-20T17:01:58.371Z,49.73
2018-12-20T17:04:27.279Z,47.10
2018-12-20T17:07:02.915Z,47.33
2018-12-20T17:09:31.823Z,49.50
2018-12-20T17:12:00.705Z,54.60
2018-12-20T17:14:29.652Z,52.20
2018-12-20T17:16:58.285Z,56.00
2018-12-20T17:19:27.197Z,52.97
2018-12-20T17:21:55.809Z,53.63
2018-12-20T17:24:24.568Z,56.60
2018-12-20T17:26:53.249Z,57.23
2018-12-20T17:29:22.243Z,58.00
2018-12-20T17:31:51.249Z,60.20
2018-12-20T17:34:19.807Z,57.63
2018-12-20T17:36:48.493Z,58.17
2018-12-20T17:39:20.478Z,62.60
2018-12-20T17:41:49.101Z,59.07
2018-12-20T17:44:18.259Z,61.48
2018-12-20T17:46:46.809Z,57.77
2018-12-20T17:49:15.383Z,51.27
2018-12-20T17:51:43.954Z,55.83
2018-12-20T17:54:12.955Z,53.57
2018-12-20T17:56:41.920Z,55.73
2018-12-20T17:59:10.583Z,56.27
2018-12-20T18:01:40.331Z,59.33
2018-12-20T18:04:09.709Z,57.07
2018-12-20T18:06:38.708Z,56.80
2018-12-20T18:09:09.071Z,68.50
2018-12-20T18:11:37.725Z,67.47
2018-12-20T18:14:06.706Z,58.83
2018-12-20T18:16:35.676Z,62.63
2018-12-20T18:19:04.250Z,66.37
2018-12-20T18:21:32.837Z,68.43
2018-12-20T18:24:01.440Z,70.00
2018-12-20T18:26:30.482Z,67.13
2018-12-20T18:28:59.397Z,74.70
2018-12-20T18:31:28.023Z,68.83
2018-12-20T18:33:56.944Z,75.03
2018-12-20T18:36:25.551Z,70.40
2018-12-20T18:38:54.455Z,65.53
2018-12-20T18:41:23.397Z,65.33
2018-12-20T18:43:52.498Z,64.90
2018-12-20T18:46:21.482Z,64.03
2018-12-20T18:48:50.082Z,64.13
2018-12-20T18:51:19.347Z,63.83
2018-12-20T18:53:47.949Z,68.93
2018-12-20T18:56:16.480Z,73.20
2018-12-20T18:58:45.045Z,69.97
2018-12-20T19:01:13.644Z,66.33
2018-12-20T19:03:42.668Z,66.20
2018-12-20T19:06:11.676Z,70.57
2018-12-20T19:08:40.690Z,66.63
2018-12-20T19:11:09.342Z,71.67
2018-12-20T19:13:37.938Z,72.83
2018-12-20T19:16:06.974Z,80.60
2018-12-20T19:18:42.759Z,80.23
2018-12-20T19:21:11.759Z,82.20
2018-12-20T19:23:40.720Z,119.57
2018-12-20T19:26:09.886Z,81.20
2018-12-20T19:28:38.438Z,75.90
2018-12-20T19:31:07.025Z,77.53
2018-12-20T19:33:35.637Z,74.73
2018-12-20T19:36:04.195Z,69.43
2018-12-20T19:38:32.777Z,70.10
2018-12-20T19:41:01.749Z,70.03
2018-12-20T19:43:30.310Z,67.17
2018-12-20T19:45:59.272Z,65.57
2018-12-20T19:48:28.279Z,63.30
2018-12-20T19:50:56.873Z,64.10
2018-12-20T19:53:25.521Z,63.00
2018-12-20T19:55:54.090Z,62.47
2018-12-20T19:58:22.776Z,58.53
2018-12-20T20:00:51.337Z,54.53
2018-12-20T20:03:20.229Z,57.77
2018-12-20T20:05:49.157Z,62.93
2018-12-20T20:08:17.873Z,67.30
2018-12-20T20:10:46.460Z,62.50
2018-12-20T20:13:19.222Z,65.37
2018-12-20T20:15:46.475Z,62.63
2018-12-20T20:18:15.407Z,58.90
2018-12-20T20:20:44.420Z,60.37
2018-12-20T20:23:19.615Z,62.97
2018-12-20T20:25:48.609Z,63.63
2018-12-20T20:28:17.158Z,61.30
2018-12-20T20:30:46.050Z,60.93
2018-12-20T20:33:14.963Z,59.70
2018-12-20T20:35:43.848Z,56.50
2018-12-20T20:38:12.444Z,54.37
2018-12-20T20:40:41.391Z,49.37
2018-12-20T20:43:10.315Z,46.40
2018-12-20T20:45:38.885Z,43.20
2018-12-20T20:48:07.458Z,39.00
2018-12-20T20:50:36.459Z,38.17
2018-12-20T20:53:05.516Z,33.97
2018-12-20T20:55:34.435Z,34.13
2018-12-20T20:58:03.049Z,31.70
2018-12-20T21:00:31.989Z,30.70
2018-12-20T21:03:00.605Z,32.90
2018-12-20T21:05:29.707Z,32.83
2018-12-20T21:07:58.276Z,30.93
2018-12-20T21:10:26.855Z,33.00
2018-12-20T21:12:55.823Z,31.90
2018-12-20T21:15:24.812Z,34.50
2018-12-20T21:17:56.684Z,31.67
2018-12-20T21:20:30.622Z,32.47
2018-12-20T21:22:56.310Z,33.37
2018-12-20T21:25:24.979Z,33.70
2018-12-20T21:27:53.978Z,33.23
2018-12-20T21:30:23.017Z,32.47
2018-12-20T21:32:51.942Z,31.53
2018-12-20T21:35:20.554Z,73.97
2018-12-20T21:37:49.118Z,67.03
2018-12-20T21:40:18.776Z,48.53
2018-12-20T21:42:47.906Z,42.73
2018-12-20T21:45:16.881Z,37.37
2018-12-20T21:47:45.482Z,36.77
2018-12-20T21:50:14.406Z,42.70
2018-12-20T21:52:43.305Z,44.67
2018-12-20T21:55:11.923Z,41.00
2018-12-20T21:57:40.525Z,39.30
2018-12-20T22:00:10.590Z,40.50
2018-12-20T22:02:39.189Z,36.63
2018-12-20T22:05:07.742Z,36.57
2018-12-20T22:07:37.677Z,37.90
2018-12-20T22:10:07.738Z,37.47
2018-12-20T22:12:36.683Z,38.27
2018-12-20T22:15:05.337Z,34.93
2018-12-20T22:17:34.354Z,32.77
2018-12-20T22:20:03.106Z,32.97
2018-12-20T22:22:32.001Z,31.90
2018-12-20T22:25:01.009Z,31.67
2018-12-20T22:27:29.934Z,31.20
2018-12-20T22:29:58.540Z,32.57
2018-12-20T22:32:27.446Z,30.60
2018-12-20T22:34:56.403Z,34.43
2018-12-20T22:37:25.331Z,34.97
2018-12-20T22:39:54.318Z,35.53
2018-12-20T22:42:22.866Z,33.47
2018-12-20T22:44:51.749Z,32.00
2018-12-20T22:47:20.679Z,32.57
2018-12-20T22:49:49.655Z,31.93
2018-12-20T22:52:18.221Z,31.73
2018-12-20T22:54:47.503Z,30.80
2018-12-20T22:57:16.498Z,31.87
2018-12-20T22:59:45.442Z,32.00
2018-12-20T23:02:18.078Z,31.40
2018-12-20T23:04:45.179Z,34.90
2018-12-20T23:07:13.764Z,35.67
2018-12-20T23:09:42.624Z,37.73
2018-12-20T23:12:11.759Z,41.57
2018-12-20T23:14:40.703Z,43.83
2018-12-20T23:17:09.323Z,44.17
2018-12-20T23:19:38.263Z,47.73
2018-12-20T23:22:07.169Z,48.70
2018-12-20T23:24:36.107Z,55.23
2018-12-20T23:27:04.722Z,56.43
2018-12-20T23:29:33.328Z,66.63
2018-12-20T23:32:02.346Z,70.23
2018-12-20T23:34:31.285Z,68.50
2018-12-20T23:37:00.391Z,71.97
2018-12-20T23:39:28.914Z,71.53
2018-12-20T23:41:57.893Z,78.00
2018-12-20T23:44:26.468Z,72.30
2018-12-20T23:46:55.520Z,69.73
2018-12-20T23:49:24.475Z,67.73
2018-12-20T23:51:53.035Z,63.57
2018-12-20T23:54:21.932Z,59.10
2018-12-20T23:56:50.850Z,59.27
2018-12-20T23:59:19.760Z,56.90
